Time;durP1;ratioP1;P1;durP2;ratioP2;P2;SDS_P1;SDS_P2;PMS_P1;PMS_P2;Temp;Humidity;BMP_temperature;BMP_pressure;BME280_temperature;BME280_humidity;BME280_pressure;Samples;Min_cycle;Max_cycle;Signal;HPM_P1;HPM_P2
2022/10/28 00:07:17;;;;;;;16.63;4.60;;;12.70;99.90;;;;;;21097578;28;20034;-77
2022/10/28 00:17:18;;;;;;;17.40;5.23;;;12.80;99.90;;;;;;21093872;28;20027;-77
2022/10/28 00:27:19;;;;;;;8.47;5.13;;;12.70;99.90;;;;;;21064958;28;20043;-77
2022/10/28 00:37:19;;;;;;;17.07;5.20;;;12.50;99.90;;;;;;21081496;28;20071;-77
2022/10/28 00:47:26;;;;;;;10.17;5.50;;;12.40;99.90;;;;;;21092663;28;20095;-77
2022/10/28 00:57:32;;;;;;;13.68;5.93;;;12.30;99.90;;;;;;21099636;28;20028;-77
2022/10/28 01:07:33;;;;;;;29.08;6.57;;;12.10;99.90;;;;;;21089827;28;20043;-77
2022/10/28 01:17:53;;;;;;;15.57;6.47;;;12.00;99.90;;;;;;21087483;28;20488;-77
2022/10/28 01:28:21;;;;;;;18.92;6.65;;;12.00;99.90;;;;;;21067736;28;20427;-77
2022/10/28 01:38:34;;;;;;;16.55;7.47;;;12.00;99.90;;;;;;21087433;28;20043;-77
2022/10/28 01:48:52;;;;;;;19.23;6.82;;;12.00;99.90;;;;;;21086733;28;20023;-77
2022/10/28 01:58:57;;;;;;;16.95;8.23;;;11.80;99.90;;;;;;21088839;28;20054;-77
2022/10/28 02:09:16;;;;;;;17.63;7.30;;;11.90;99.90;;;;;;21084418;28;20032;-76
2022/10/28 02:19:32;;;;;;;20.45;7.70;;;12.00;99.90;;;;;;21089961;28;20064;-77
2022/10/28 02:29:42;;;;;;;18.88;6.53;;;11.80;99.90;;;;;;20926445;28;20043;-76
2022/10/28 02:39:47;;;;;;;13.77;6.70;;;11.70;99.90;;;;;;20919100;28;20065;-77
2022/10/28 02:49:54;;;;;;;11.57;6.25;;;11.70;99.90;;;;;;20918358;28;20041;-77
2022/10/28 03:00:00;;;;;;;22.10;7.45;;;11.60;99.90;;;;;;20919878;28;20506;-77
2022/10/28 03:10:01;;;;;;;17.15;6.35;;;11.40;99.90;;;;;;20916661;28;20040;-77
2022/10/28 03:20:02;;;;;;;10.97;6.63;;;11.30;99.90;;;;;;20923640;28;20029;-77
2022/10/28 03:30:03;;;;;;;15.50;6.87;;;11.20;99.90;;;;;;20977825;28;20024;-77
2022/10/28 03:40:06;;;;;;;13.07;6.47;;;11.10;99.90;;;;;;21006102;28;20028;-76
2022/10/28 03:50:07;;;;;;;15.07;7.22;;;11.00;99.90;;;;;;21011781;28;20048;-77
2022/10/28 04:00:09;;;;;;;14.95;7.38;;;10.80;99.90;;;;;;20926324;28;20021;-77
2022/10/28 04:10:13;;;;;;;14.20;8.50;;;10.80;99.90;;;;;;20950426;28;20040;-77
2022/10/28 04:20:13;;;;;;;;;;;10.80;99.90;;;;;;20987647;28;20067;-76
2022/10/28 04:30:15;;;;;;;22.13;9.53;;;10.80;99.90;;;;;;20973340;28;19916;-77
2022/10/28 04:40:15;;;;;;;;;;;10.70;99.90;;;;;;20960046;28;20445;-75
2022/10/28 04:50:17;;;;;;;17.13;9.50;;;10.60;99.90;;;;;;20960025;28;20035;-75
2022/10/28 05:00:18;;;;;;;15.57;8.77;;;10.50;99.90;;;;;;20941709;28;20029;-77
2022/10/28 05:10:19;;;;;;;78.20;12.43;;;10.60;99.90;;;;;;20972600;28;20040;-76
2022/10/28 05:20:20;;;;;;;32.30;10.07;;;10.60;99.90;;;;;;20999745;28;20028;-78
2022/10/28 05:30:21;;;;;;;25.77;11.50;;;10.60;99.90;;;;;;20957317;28;20041;-76
2022/10/28 05:40:22;;;;;;;25.70;11.90;;;10.60;99.90;;;;;;20992276;22;20048;-78
2022/10/28 05:50:22;;;;;;;26.13;13.27;;;10.80;99.90;;;;;;20957934;28;20059;-78
2022/10/28 06:00:25;;;;;;;27.23;11.63;;;10.80;99.90;;;;;;20992956;28;20267;-79
2022/10/28 06:10:26;;;;;;;28.25;12.82;;;11.00;99.90;;;;;;20929107;28;20036;-77
2022/10/28 06:20:27;;;;;;;19.00;10.77;;;11.00;99.90;;;;;;20911885;28;20447;-78
2022/10/28 06:30:28;;;;;;;18.73;11.37;;;11.00;99.90;;;;;;20894546;28;20391;-78
2022/10/28 06:40:29;;;;;;;22.47;12.47;;;10.90;99.90;;;;;;20908423;28;20056;-77
2022/10/28 06:50:32;;;;;;;26.87;13.37;;;10.90;99.90;;;;;;20975112;28;20081;-78
2022/10/28 07:00:33;;;;;;;25.25;13.45;;;11.00;99.90;;;;;;21004501;28;20035;-77
2022/10/28 07:10:34;;;;;;;32.67;14.17;;;10.90;99.90;;;;;;21009627;28;20063;-79
2022/10/28 07:20:35;;;;;;;43.37;14.33;;;10.90;99.90;;;;;;21045461;28;20023;-78
2022/10/28 07:30:36;;;;;;;27.43;13.60;;;11.00;99.90;;;;;;21037913;28;20494;-77
2022/10/28 07:40:36;;;;;;;30.60;13.17;;;11.10;99.90;;;;;;21025965;28;20060;-78
2022/10/28 07:50:39;;;;;;;18.07;10.30;;;11.20;99.90;;;;;;21083629;28;20060;-77
2022/10/28 08:00:40;;;;;;;22.02;9.60;;;11.50;99.90;;;;;;21096221;28;20493;-78
2022/10/28 08:10:41;;;;;;;22.23;8.97;;;11.70;99.90;;;;;;21091152;28;20085;-79
2022/10/28 08:20:41;;;;;;;22.80;9.57;;;11.90;99.90;;;;;;21093784;28;20020;-79
2022/10/28 08:30:43;;;;;;;18.43;9.10;;;12.10;99.90;;;;;;21093739;28;20043;-78
2022/10/28 08:40:55;;;;;;;16.67;8.98;;;12.30;99.90;;;;;;21093220;28;20408;-78
2022/10/28 08:51:10;;;;;;;14.77;9.40;;;12.50;99.90;;;;;;21055449;28;20086;-78
2022/10/28 09:01:36;;;;;;;14.73;8.73;;;12.70;99.90;;;;;;21091387;28;20086;-77
2022/10/28 09:11:51;;;;;;;17.33;8.20;;;13.50;99.90;;;;;;21080509;28;20089;-77
2022/10/28 09:22:11;;;;;;;21.55;7.10;;;13.40;99.90;;;;;;21058272;28;20517;-77
2022/10/28 09:32:38;;;;;;;484.67;38.40;;;15.30;99.90;;;;;;21076779;28;20478;-77
2022/10/28 09:42:45;;;;;;;75.75;45.53;;;16.30;99.90;;;;;;21075884;28;20119;-77
2022/10/28 09:52:53;;;;;;;122.90;23.05;;;15.70;99.90;;;;;;21059899;28;20028;-78
2022/10/28 10:02:56;;;;;;;204.43;48.85;;;15.90;99.90;;;;;;21081148;28;20402;-79
2022/10/28 10:13:01;;;;;;;33.05;4.50;;;17.20;99.90;;;;;;21083999;28;20028;-77
2022/10/28 10:23:28;;;;;;;8.15;3.97;;;16.10;99.90;;;;;;21073632;28;20035;-77
2022/10/28 10:33:38;;;;;;;11.93;4.22;;;17.80;99.90;;;;;;21071205;28;20051;-80
2022/10/28 10:43:39;;;;;;;87.03;23.60;;;18.70;99.90;;;;;;21088690;28;20032;-79
2022/10/28 10:53:40;;;;;;;9.83;5.07;;;16.90;99.90;;;;;;20997813;28;20044;-79
2022/10/28 11:03:59;;;;;;;12.77;5.20;;;16.30;99.90;;;;;;21027347;28;20052;-79
2022/10/28 11:14:24;;;;;;;506.23;96.70;;;16.40;99.90;;;;;;21033828;28;20040;-76
2022/10/28 11:25:04;;;;;;;86.93;29.00;;;16.70;99.90;;;;;;21044812;28;20044;-75
2022/10/28 11:35:35;;;;;;;7.43;3.92;;;16.60;99.90;;;;;;21038264;28;20047;-75
2022/10/28 11:45:39;;;;;;;15.23;4.53;;;17.70;99.90;;;;;;21052472;22;20060;-76
2022/10/28 11:56:01;;;;;;;11.13;4.38;;;19.40;99.90;;;;;;21051853;28;20054;-76
2022/10/28 12:06:15;;;;;;;10.65;4.05;;;19.50;99.90;;;;;;21056717;28;20016;-78
2022/10/28 12:16:48;;;;;;;9.02;4.38;;;19.50;99.90;;;;;;21052961;28;20032;-79
2022/10/28 12:26:58;;;;;;;14.03;4.07;;;19.10;99.90;;;;;;21031878;28;20031;-79
2022/10/28 12:37:08;;;;;;;11.38;3.53;;;18.60;99.90;;;;;;21040182;28;20024;-78
2022/10/28 12:47:18;;;;;;;14.07;4.43;;;19.30;99.90;;;;;;21032098;28;20044;-78
2022/10/28 12:57:22;;;;;;;11.02;3.72;;;19.70;99.90;;;;;;21010925;28;20043;-79
2022/10/28 13:08:04;;;;;;;8.05;3.42;;;21.30;99.90;;;;;;21010502;28;20085;-78
2022/10/28 13:18:21;;;;;;;10.60;3.97;;;21.10;99.90;;;;;;21007896;28;20119;-79
2022/10/28 13:28:25;;;;;;;14.52;3.97;;;21.10;99.90;;;;;;21013595;28;20029;-78
2022/10/28 13:38:26;;;;;;;10.70;4.05;;;21.00;99.90;;;;;;21002168;28;20060;-78
2022/10/28 13:48:27;;;;;;;13.93;3.70;;;20.90;99.90;;;;;;21029288;28;20040;-77
2022/10/28 13:58:28;;;;;;;8.17;3.50;;;21.10;99.90;;;;;;21019187;28;20457;-79
2022/10/28 14:08:39;;;;;;;6.77;3.60;;;21.70;99.90;;;;;;21025328;28;20042;-77
2022/10/28 14:18:41;;;;;;;10.00;3.93;;;21.10;99.90;;;;;;21038932;28;20363;-78
2022/10/28 14:28:41;;;;;;;8.88;4.38;;;21.40;99.90;;;;;;21039272;28;20031;-77
2022/10/28 14:39:20;;;;;;;13.83;3.77;;;21.50;99.90;;;;;;21018260;28;20033;-78
2022/10/28 14:49:26;;;;;;;11.13;3.83;;;20.60;99.90;;;;;;21021724;28;20401;-77
2022/10/28 14:59:32;;;;;;;20.13;4.40;;;20.00;99.90;;;;;;21000553;28;20278;-77
2022/10/28 15:09:33;;;;;;;11.02;3.90;;;19.30;99.90;;;;;;20976140;28;20040;-77
2022/10/28 15:19:34;;;;;;;8.02;3.80;;;19.00;99.90;;;;;;20983016;28;20043;-76
2022/10/28 15:29:35;;;;;;;11.10;4.43;;;18.80;99.90;;;;;;21082902;28;20056;-77
2022/10/28 15:39:37;;;;;;;13.73;4.43;;;18.40;99.90;;;;;;21070098;28;20039;-77
2022/10/28 15:49:39;;;;;;;10.05;3.97;;;18.20;99.90;;;;;;21053972;28;20040;-78
2022/10/28 15:59:40;;;;;;;17.45;4.60;;;17.90;99.90;;;;;;20929917;28;20071;-77
2022/10/28 16:09:45;;;;;;;10.13;3.87;;;17.60;99.90;;;;;;20924131;28;20037;-78
2022/10/28 16:20:20;;;;;;;12.80;4.30;;;17.40;99.90;;;;;;20925832;28;20131;-77
2022/10/28 16:30:21;;;;;;;10.05;3.85;;;16.80;99.90;;;;;;20908269;28;20083;-78
2022/10/28 16:40:22;;;;;;;10.53;3.53;;;16.80;99.90;;;;;;21072094;28;20036;-78
2022/10/28 16:50:22;;;;;;;16.83;4.40;;;16.90;99.90;;;;;;21050226;28;20527;-78
2022/10/28 17:00:23;;;;;;;11.13;4.33;;;16.80;99.90;;;;;;21014034;28;20063;-80
2022/10/28 17:10:26;;;;;;;15.57;3.97;;;16.80;99.90;;;;;;21012526;28;20119;-78
2022/10/28 17:20:26;;;;;;;17.45;3.95;;;16.70;99.90;;;;;;20986756;28;20032;-77
2022/10/28 17:30:27;;;;;;;7.77;3.60;;;16.70;99.90;;;;;;20996550;28;20044;-78
2022/10/28 17:40:30;;;;;;;12.50;4.10;;;16.60;99.90;;;;;;20999321;22;20047;-76
2022/10/28 17:50:31;;;;;;;9.52;4.40;;;16.60;99.90;;;;;;20981697;28;20036;-77
2022/10/28 18:00:32;;;;;;;8.93;4.17;;;16.40;99.90;;;;;;20983574;28;20031;-76
2022/10/28 18:10:33;;;;;;;13.53;4.20;;;16.20;99.90;;;;;;21043125;28;20020;-76
2022/10/28 18:20:35;;;;;;;12.77;4.73;;;15.90;99.90;;;;;;21068731;28;20487;-76
2022/10/28 18:30:36;;;;;;;12.20;4.40;;;15.80;99.90;;;;;;20980507;28;20036;-76
2022/10/28 18:40:45;;;;;;;21.40;4.93;;;15.70;99.90;;;;;;20964371;28;20035;-76
2022/10/28 18:50:59;;;;;;;13.63;5.03;;;15.50;99.90;;;;;;20982448;28;20039;-76
2022/10/28 19:01:10;;;;;;;13.93;5.18;;;15.00;99.90;;;;;;20993402;28;20036;-76
2022/10/28 19:11:12;;;;;;;15.23;4.40;;;14.90;99.90;;;;;;21010761;28;20063;-76
2022/10/28 19:21:14;;;;;;;12.93;4.55;;;14.90;99.90;;;;;;21026856;28;20039;-77
2022/10/28 19:31:21;;;;;;;17.00;5.53;;;14.80;99.90;;;;;;21048036;28;20031;-76
2022/10/28 19:41:28;;;;;;;20.23;5.05;;;14.70;99.90;;;;;;21046060;28;20043;-76
2022/10/28 19:51:32;;;;;;;13.32;5.07;;;14.30;99.90;;;;;;21041191;28;20051;-76
2022/10/28 20:01:37;;;;;;;390.27;42.63;;;14.30;99.90;;;;;;21047046;28;20486;-76
2022/10/28 20:11:38;;;;;;;327.88;46.53;;;14.40;99.90;;;;;;21010216;28;20379;-76
2022/10/28 20:21:39;;;;;;;265.67;24.40;;;14.40;99.90;;;;;;20974766;28;20458;-76
2022/10/28 20:31:40;;;;;;;18.20;6.30;;;14.10;99.90;;;;;;20988344;28;20306;-76
2022/10/28 20:41:43;;;;;;;273.43;30.63;;;14.10;99.90;;;;;;21000382;28;20379;-76
2022/10/28 20:51:44;;;;;;;14.23;4.65;;;14.10;99.90;;;;;;21000178;28;20441;-76
2022/10/28 21:01:44;;;;;;;17.27;4.93;;;14.20;99.90;;;;;;21010531;28;20033;-76
2022/10/28 21:11:48;;;;;;;14.70;4.00;;;14.10;99.90;;;;;;20987235;28;20064;-78
2022/10/28 21:21:49;;;;;;;18.90;4.53;;;14.10;99.90;;;;;;20989710;28;20040;-77
2022/10/28 21:31:50;;;;;;;23.50;5.73;;;14.00;99.90;;;;;;21008466;28;20422;-76
2022/10/28 21:41:51;;;;;;;14.73;5.33;;;13.80;99.90;;;;;;21001292;28;20044;-77
2022/10/28 21:51:52;;;;;;;18.87;4.63;;;13.60;99.90;;;;;;21011945;28;20550;-76
2022/10/28 22:01:53;;;;;;;10.73;4.80;;;13.50;99.90;;;;;;20994072;28;20127;-77
2022/10/28 22:11:54;;;;;;;15.90;4.70;;;13.60;99.90;;;;;;20990992;28;20074;-77
2022/10/28 22:21:54;;;;;;;19.63;4.97;;;13.60;99.90;;;;;;21007891;28;20079;-78
2022/10/28 22:31:55;;;;;;;17.80;4.63;;;13.60;99.90;;;;;;21031679;28;20278;-78
2022/10/28 22:41:56;;;;;;;18.43;4.37;;;13.60;99.90;;;;;;21036711;28;20036;-78
2022/10/28 22:51:57;;;;;;;17.20;3.37;;;13.50;99.90;;;;;;21037593;28;20078;-78
2022/10/28 23:01:57;;;;;;;19.40;4.20;;;13.40;99.90;;;;;;21051857;28;20052;-78
2022/10/28 23:11:58;;;;;;;12.57;5.80;;;13.40;99.90;;;;;;21031002;28;20035;-78
2022/10/28 23:21:59;;;;;;;13.83;4.87;;;13.50;99.90;;;;;;21050687;28;20036;-79
2022/10/28 23:32:00;;;;;;;16.93;6.17;;;13.50;99.90;;;;;;21049152;28;20035;-78
2022/10/28 23:42:01;;;;;;;12.67;5.70;;;13.50;99.90;;;;;;21061304;28;20028;-78
2022/10/28 23:52:02;;;;;;;18.63;6.27;;;13.40;99.90;;;;;;21072783;28;20029;-77
